createdAt,value
2023-05-12T00:02:56.315Z,10.70
2023-05-12T00:06:21.853Z,10.70
2023-05-12T00:09:43.510Z,10.70
2023-05-12T00:13:09.001Z,10.70
2023-05-12T00:16:31.816Z,10.60
2023-05-12T00:19:54.865Z,10.60
2023-05-12T00:23:27.446Z,10.60
2023-05-12T00:26:49.712Z,10.60
2023-05-12T00:30:15.018Z,10.60
2023-05-12T00:33:36.782Z,10.60
2023-05-12T00:36:59.371Z,10.60
2023-05-12T00:40:27.929Z,10.60
2023-05-12T00:43:49.614Z,10.60
2023-05-12T00:47:11.259Z,10.60
2023-05-12T00:50:35.952Z,10.60
2023-05-12T00:53:58.267Z,10.60
2023-05-12T00:57:21.946Z,10.60
2023-05-12T01:00:50.146Z,10.50
2023-05-12T01:04:12.370Z,10.50
2023-05-12T01:07:35.567Z,10.50
2023-05-12T01:10:57.454Z,10.50
2023-05-12T01:14:34.398Z,10.50
2023-05-12T01:17:59.555Z,10.50
2023-05-12T01:21:21.341Z,10.50
2023-05-12T01:24:46.305Z,10.50
2023-05-12T01:28:09.308Z,10.50
2023-05-12T01:31:31.707Z,10.50
2023-05-12T01:34:53.349Z,10.60
2023-05-12T01:38:14.966Z,10.50
2023-05-12T01:41:36.814Z,10.60
2023-05-12T01:45:00.029Z,10.60
2023-05-12T01:48:21.941Z,10.50
2023-05-12T01:51:44.166Z,10.50
2023-05-12T01:55:06.573Z,10.50
2023-05-12T01:58:28.368Z,10.60
2023-05-12T02:01:51.412Z,10.50
2023-05-12T02:05:13.310Z,10.50
2023-05-12T02:08:35.037Z,10.40
2023-05-12T02:11:57.436Z,10.40
2023-05-12T02:15:19.550Z,10.40
2023-05-12T02:18:42.806Z,10.40
2023-05-12T02:22:04.748Z,10.40
2023-05-12T02:25:26.543Z,10.40
2023-05-12T02:28:52.589Z,10.40
2023-05-12T02:32:14.933Z,10.40
2023-05-12T02:35:38.255Z,10.50
2023-05-12T02:39:00.184Z,10.50
2023-05-12T02:42:21.956Z,10.50
2023-05-12T02:45:44.774Z,10.40
2023-05-12T02:49:07.043Z,10.40
2023-05-12T02:52:30.315Z,10.40
2023-05-12T02:55:52.204Z,10.40
2023-05-12T02:59:14.273Z,10.40
2023-05-12T03:02:36.304Z,10.40
2023-05-12T03:05:58.053Z,10.40
2023-05-12T03:09:20.995Z,10.40
2023-05-12T03:12:42.598Z,10.40
2023-05-12T03:16:05.039Z,10.40
2023-05-12T03:19:26.909Z,10.40
2023-05-12T03:22:48.496Z,10.40
2023-05-12T03:26:11.529Z,10.40
2023-05-12T03:29:33.314Z,10.40
2023-05-12T03:32:55.165Z,10.40
2023-05-12T03:36:16.797Z,10.40
2023-05-12T03:39:38.377Z,10.40
2023-05-12T03:43:01.285Z,10.30
2023-05-12T03:46:23.161Z,10.30
2023-05-12T03:49:44.906Z,10.40
2023-05-12T03:53:06.568Z,10.40
2023-05-12T03:56:28.232Z,10.40
2023-05-12T03:59:51.177Z,10.40
2023-05-12T04:03:12.823Z,10.40
2023-05-12T04:06:34.480Z,10.40
2023-05-12T04:09:56.140Z,10.40
2023-05-12T04:13:17.812Z,10.50
2023-05-12T04:16:40.887Z,10.50
2023-05-12T04:20:02.600Z,10.50
2023-05-12T04:23:24.355Z,10.50
2023-05-12T04:26:45.982Z,10.60
2023-05-12T04:30:08.181Z,10.60
2023-05-12T04:33:31.161Z,10.50
2023-05-12T04:36:52.843Z,10.50
2023-05-12T04:40:14.648Z,10.60
2023-05-12T04:47:00.721Z,10.70
2023-05-12T04:50:23.665Z,10.70
2023-05-12T04:53:45.248Z,10.70
2023-05-12T04:57:06.839Z,10.80
2023-05-12T05:00:28.445Z,10.80
2023-05-12T05:03:50.243Z,10.80
2023-05-12T05:07:13.281Z,10.90
2023-05-12T05:10:35.145Z,11.00
2023-05-12T05:13:56.844Z,11.20
2023-05-12T05:17:18.490Z,11.20
2023-05-12T05:20:40.787Z,11.20
2023-05-12T05:24:09.070Z,11.20
2023-05-12T05:27:31.007Z,11.20
2023-05-12T05:30:52.573Z,11.30
2023-05-12T05:34:14.190Z,11.30
2023-05-12T05:37:35.777Z,11.40
2023-05-12T05:40:58.654Z,11.40
2023-05-12T05:44:20.405Z,11.40
2023-05-12T05:47:41.994Z,11.40
2023-05-12T05:51:03.829Z,11.60
2023-05-12T05:54:25.564Z,11.60
2023-05-12T05:57:48.486Z,11.60
2023-05-12T06:01:11.755Z,11.60
2023-05-12T06:04:33.479Z,11.60
2023-05-12T06:07:55.220Z,11.80
2023-05-12T06:11:17.948Z,11.90
2023-05-12T06:14:45.035Z,12.00
2023-05-12T06:18:07.351Z,12.10
2023-05-12T06:21:31.160Z,12.40
2023-05-12T06:24:53.743Z,12.40
2023-05-12T06:28:15.322Z,12.50
2023-05-12T06:31:39.766Z,12.70
2023-05-12T06:35:02.560Z,12.70
2023-05-12T06:38:24.270Z,12.80
2023-05-12T06:41:45.901Z,12.70
2023-05-12T06:45:09.412Z,12.80
2023-05-12T06:48:33.624Z,12.70
2023-05-12T06:51:55.216Z,12.90
2023-05-12T06:55:16.769Z,12.90
2023-05-12T06:58:38.345Z,12.90
2023-05-12T07:02:00.003Z,13.00
2023-05-12T07:05:24.094Z,13.20
2023-05-12T07:08:45.999Z,13.40
2023-05-12T07:12:07.646Z,13.50
2023-05-12T07:15:31.205Z,13.50
2023-05-12T07:18:54.215Z,13.60
2023-05-12T07:22:17.219Z,13.60
2023-05-12T07:25:39.383Z,13.60
2023-05-12T07:29:01.397Z,13.80
2023-05-12T07:32:23.383Z,13.80
2023-05-12T07:35:45.958Z,14.10
2023-05-12T07:39:08.859Z,14.30
2023-05-12T07:42:30.454Z,14.80
2023-05-12T07:45:52.042Z,15.30
2023-05-12T07:49:13.625Z,15.90
2023-05-12T07:52:35.203Z,16.20
2023-05-12T07:55:58.140Z,16.50
2023-05-12T07:59:19.893Z,16.70
2023-05-12T08:02:41.926Z,16.60
2023-05-12T08:06:03.700Z,16.40
2023-05-12T08:09:25.300Z,16.50
2023-05-12T08:12:48.253Z,16.80
2023-05-12T08:16:09.845Z,17.30
2023-05-12T08:19:31.423Z,17.60
2023-05-12T08:22:53.055Z,17.50
2023-05-12T08:26:14.648Z,17.40
2023-05-12T08:32:59.518Z,19.00
2023-05-12T08:36:21.176Z,19.10
2023-05-12T08:39:42.789Z,18.30
2023-05-12T08:43:07.533Z,17.40
2023-05-12T08:46:30.602Z,16.80
2023-05-12T08:49:58.577Z,16.60
2023-05-12T08:53:20.583Z,16.50
2023-05-12T09:00:07.492Z,16.60
2023-05-12T09:03:29.851Z,17.00
2023-05-12T09:06:55.567Z,17.50
2023-05-12T09:10:32.872Z,17.40
2023-05-12T09:14:00.052Z,17.50
2023-05-12T09:17:21.660Z,18.10
2023-05-12T09:20:43.489Z,18.30
2023-05-12T09:24:07.605Z,18.10
2023-05-12T09:27:30.405Z,18.20
2023-05-12T09:30:52.163Z,18.50
2023-05-12T09:34:13.736Z,18.40
2023-05-12T09:37:35.276Z,18.60
2023-05-12T09:40:58.217Z,18.90
2023-05-12T09:44:20.083Z,19.30
2023-05-12T09:47:41.710Z,19.70
2023-05-12T09:51:03.396Z,20.30
2023-05-12T09:54:25.397Z,19.90
2023-05-12T09:57:48.508Z,19.20
2023-05-12T10:01:22.745Z,19.30
2023-05-12T10:04:49.943Z,19.30
2023-05-12T10:08:13.250Z,19.00
2023-05-12T10:11:35.065Z,18.70
2023-05-12T10:14:58.020Z,18.60
2023-05-12T10:18:19.778Z,18.50
2023-05-12T10:21:42.727Z,18.00
2023-05-12T10:25:05.600Z,17.60
2023-05-12T10:28:27.284Z,17.10
2023-05-12T10:31:50.698Z,17.30
2023-05-12T10:35:12.871Z,17.00
2023-05-12T10:38:37.275Z,16.80
2023-05-12T10:42:02.154Z,16.70
2023-05-12T10:45:23.852Z,16.50
2023-05-12T10:48:53.756Z,16.40
2023-05-12T10:52:20.683Z,16.30
2023-05-12T10:55:43.522Z,16.10
2023-05-12T10:59:06.746Z,16.30
2023-05-12T11:02:30.541Z,16.40
2023-05-12T11:06:00.829Z,16.40
2023-05-12T11:09:22.894Z,16.40
2023-05-12T11:12:44.628Z,16.30
2023-05-12T11:16:06.480Z,16.00
2023-05-12T11:19:28.104Z,15.90
2023-05-12T11:22:51.334Z,15.60
2023-05-12T11:26:16.711Z,15.40
2023-05-12T11:29:38.399Z,15.00
2023-05-12T11:33:00.619Z,14.60
2023-05-12T11:36:22.282Z,14.40
2023-05-12T11:39:45.220Z,14.20
2023-05-12T11:43:09.527Z,14.20
2023-05-12T11:46:31.400Z,14.20
2023-05-12T11:49:53.752Z,14.20
2023-05-12T11:53:16.805Z,14.20
2023-05-12T11:56:47.258Z,14.10
2023-05-12T12:00:09.326Z,14.20
2023-05-12T12:03:31.057Z,14.30
2023-05-12T12:06:52.746Z,14.40
2023-05-12T12:10:15.075Z,14.60
2023-05-12T12:13:38.069Z,14.80
2023-05-12T12:16:59.784Z,15.00
2023-05-12T12:20:21.355Z,15.20
2023-05-12T12:23:50.987Z,15.50
2023-05-12T12:27:13.170Z,15.70
2023-05-12T12:30:36.703Z,16.10
2023-05-12T12:33:58.325Z,16.40
2023-05-12T12:37:19.895Z,16.60
2023-05-12T12:40:41.718Z,16.60
2023-05-12T12:44:03.311Z,16.80
2023-05-12T12:47:26.463Z,16.80
2023-05-12T12:50:48.064Z,16.80
2023-05-12T12:54:09.652Z,17.00
2023-05-12T12:57:31.218Z,17.00
2023-05-12T13:00:52.833Z,16.80
2023-05-12T13:04:15.783Z,16.80
2023-05-12T13:07:37.870Z,16.60
2023-05-12T13:10:59.561Z,16.30
2023-05-12T13:14:21.165Z,16.30
2023-05-12T13:17:42.903Z,16.30
2023-05-12T13:21:06.202Z,16.20
2023-05-12T13:24:28.163Z,16.10
2023-05-12T13:27:54.333Z,16.10
2023-05-12T13:31:16.422Z,15.90
2023-05-12T13:34:41.218Z,15.70
2023-05-12T13:38:06.908Z,15.50
2023-05-12T13:41:28.672Z,15.40
2023-05-12T13:44:50.476Z,15.30
2023-05-12T13:48:12.083Z,15.30
2023-05-12T13:51:33.676Z,15.40
2023-05-12T13:54:56.554Z,15.60
2023-05-12T13:58:20.441Z,16.00
2023-05-12T14:01:42.050Z,16.40
2023-05-12T14:05:03.941Z,16.70
2023-05-12T14:08:25.566Z,16.90
2023-05-12T14:11:48.530Z,17.00
2023-05-12T14:15:24.007Z,17.10
2023-05-12T14:18:52.356Z,17.10
2023-05-12T14:22:25.690Z,17.20
2023-05-12T14:25:48.217Z,16.90
2023-05-12T14:29:11.145Z,16.50
2023-05-12T14:32:32.758Z,16.30
2023-05-12T14:36:06.655Z,16.30
2023-05-12T14:39:29.907Z,16.30
2023-05-12T14:42:51.481Z,16.30
2023-05-12T14:46:14.474Z,16.30
2023-05-12T14:49:36.486Z,16.30
2023-05-12T14:52:58.069Z,16.10
2023-05-12T14:56:19.637Z,16.00
2023-05-12T14:59:42.187Z,15.70
2023-05-12T15:03:05.185Z,15.70
2023-05-12T15:06:26.831Z,15.70
2023-05-12T15:09:48.407Z,15.80
2023-05-12T15:13:10.075Z,15.80
2023-05-12T15:16:31.721Z,15.90
2023-05-12T15:19:54.759Z,16.10
2023-05-12T15:23:16.388Z,16.10
2023-05-12T15:26:39.589Z,16.20
2023-05-12T15:30:01.896Z,16.30
2023-05-12T15:33:24.326Z,16.30
2023-05-12T15:36:47.247Z,16.10
2023-05-12T15:40:11.059Z,16.10
2023-05-12T15:43:32.672Z,16.10
2023-05-12T15:46:54.353Z,15.90
2023-05-12T15:50:19.197Z,16.00
2023-05-12T15:53:42.619Z,16.00
2023-05-12T15:57:04.640Z,16.00
2023-05-12T16:00:26.306Z,15.90
2023-05-12T16:03:48.015Z,15.80
2023-05-12T16:07:10.388Z,15.70
2023-05-12T16:10:33.338Z,15.70
2023-05-12T16:13:55.140Z,15.60
2023-05-12T16:17:16.780Z,15.60
2023-05-12T16:20:38.408Z,15.70
2023-05-12T16:24:00.473Z,15.70
2023-05-12T16:27:25.564Z,15.70
2023-05-12T16:30:47.280Z,15.60
2023-05-12T16:34:08.889Z,15.50
2023-05-12T16:37:30.484Z,15.50
2023-05-12T16:40:52.162Z,15.50
2023-05-12T16:44:15.102Z,15.60
2023-05-12T16:47:36.733Z,15.60
2023-05-12T16:50:59.959Z,15.40
2023-05-12T16:54:21.556Z,15.40
2023-05-12T16:57:43.583Z,15.30
2023-05-12T17:01:06.599Z,15.30
2023-05-12T17:04:28.222Z,15.30
2023-05-12T17:07:49.817Z,15.10
2023-05-12T17:11:11.405Z,15.00
2023-05-12T17:14:32.980Z,14.90
2023-05-12T17:17:56.045Z,14.80
2023-05-12T17:21:17.659Z,14.80
2023-05-12T17:24:39.263Z,14.60
2023-05-12T17:28:00.894Z,14.60
2023-05-12T17:31:22.716Z,14.60
2023-05-12T17:34:48.544Z,14.40
2023-05-12T17:38:10.124Z,14.30
2023-05-12T17:41:31.726Z,14.20
2023-05-12T17:44:53.317Z,14.00
2023-05-12T17:48:14.990Z,14.00
2023-05-12T17:51:37.942Z,13.90
2023-05-12T17:54:59.563Z,13.90
2023-05-12T17:58:21.220Z,13.80
2023-05-12T18:01:42.781Z,13.70
2023-05-12T18:05:04.841Z,13.70
2023-05-12T18:08:28.091Z,13.70
2023-05-12T18:11:49.953Z,13.60
2023-05-12T18:15:12.580Z,13.60
2023-05-12T18:18:34.204Z,13.60
2023-05-12T18:21:55.810Z,13.60
2023-05-12T18:25:19.322Z,13.50
2023-05-12T18:28:41.172Z,13.50
2023-05-12T18:32:02.776Z,13.50
2023-05-12T18:35:24.498Z,13.40
2023-05-12T18:38:46.396Z,13.30
2023-05-12T18:42:10.140Z,13.20
2023-05-12T18:45:31.733Z,13.20
2023-05-12T18:48:53.322Z,13.10
2023-05-12T18:52:14.891Z,13.00
2023-05-12T18:55:36.468Z,13.00
2023-05-12T18:58:59.475Z,12.90
2023-05-12T19:02:21.253Z,12.90
2023-05-12T19:05:42.885Z,12.80
2023-05-12T19:09:04.646Z,12.80
2023-05-12T19:12:26.220Z,12.80
2023-05-12T19:15:49.183Z,12.70
2023-05-12T19:19:10.889Z,12.70
2023-05-12T19:22:32.536Z,12.70
2023-05-12T19:25:54.108Z,12.70
2023-05-12T19:29:15.722Z,12.70
2023-05-12T19:32:38.727Z,12.60
2023-05-12T19:36:00.393Z,12.60
2023-05-12T19:39:22.052Z,12.60
2023-05-12T19:42:43.622Z,12.60
2023-05-12T19:46:05.444Z,12.60
2023-05-12T19:49:28.379Z,12.50
2023-05-12T19:52:50.491Z,12.50
2023-05-12T19:56:12.078Z,12.50
2023-05-12T19:59:33.630Z,12.50
2023-05-12T20:02:55.619Z,12.50
2023-05-12T20:06:18.800Z,12.50
2023-05-12T20:09:40.431Z,12.40
2023-05-12T20:13:02.138Z,12.50
2023-05-12T20:16:23.972Z,12.40
2023-05-12T20:19:45.643Z,12.40
2023-05-12T20:23:08.605Z,12.40
2023-05-12T20:26:30.385Z,12.40
2023-05-12T20:29:54.291Z,12.30
2023-05-12T20:33:15.888Z,12.30
2023-05-12T20:36:37.465Z,12.30
2023-05-12T20:40:00.458Z,12.30
2023-05-12T20:43:22.080Z,12.30
2023-05-12T20:46:43.772Z,12.30
2023-05-12T20:50:06.014Z,12.20
2023-05-12T20:53:27.602Z,12.20
2023-05-12T20:56:50.553Z,12.20
2023-05-12T21:00:12.709Z,12.20
2023-05-12T21:03:34.488Z,12.30
2023-05-12T21:06:56.104Z,12.20
2023-05-12T21:10:17.753Z,12.10
2023-05-12T21:13:40.673Z,12.10
2023-05-12T21:17:02.307Z,12.10
2023-05-12T21:20:23.984Z,12.10
2023-05-12T21:23:45.569Z,12.10
2023-05-12T21:27:07.387Z,12.10
2023-05-12T21:30:32.946Z,12.10
2023-05-12T21:33:55.699Z,12.10
2023-05-12T21:37:17.358Z,12.10
2023-05-12T21:40:40.403Z,12.00
2023-05-12T21:44:02.657Z,12.00
2023-05-12T21:47:25.949Z,12.00
2023-05-12T21:50:56.668Z,11.90
2023-05-12T21:54:18.317Z,11.80
2023-05-12T21:57:39.908Z,11.80
2023-05-12T22:01:01.527Z,11.80
2023-05-12T22:04:24.482Z,11.70
2023-05-12T22:07:46.086Z,11.70
2023-05-12T22:11:07.798Z,11.60
2023-05-12T22:14:29.377Z,11.60
2023-05-12T22:17:50.974Z,11.60
2023-05-12T22:21:14.056Z,11.60
2023-05-12T22:24:35.641Z,11.50
2023-05-12T22:27:57.544Z,11.40
2023-05-12T22:31:20.510Z,11.30
2023-05-12T22:34:42.418Z,11.30
2023-05-12T22:38:05.595Z,11.20
2023-05-12T22:41:27.179Z,11.20
2023-05-12T22:44:49.433Z,11.20
2023-05-12T22:48:11.022Z,11.20
2023-05-12T22:51:32.595Z,11.10
2023-05-12T22:54:55.939Z,11.10
2023-05-12T22:58:17.544Z,11.10
2023-05-12T23:01:39.340Z,11.10
2023-05-12T23:05:00.903Z,11.10
2023-05-12T23:08:22.625Z,11.00
2023-05-12T23:11:45.541Z,11.00
2023-05-12T23:15:07.637Z,11.00
2023-05-12T23:18:29.243Z,11.00
2023-05-12T23:21:50.861Z,11.00
2023-05-12T23:25:12.429Z,11.00
2023-05-12T23:28:35.346Z,11.00
2023-05-12T23:31:56.986Z,11.10
2023-05-12T23:35:18.634Z,11.10
2023-05-12T23:38:40.369Z,11.20
2023-05-12T23:42:02.172Z,11.20
2023-05-12T23:45:25.304Z,11.20
2023-05-12T23:48:47.085Z,11.20
2023-05-12T23:52:09.008Z,11.30
2023-05-12T23:55:30.722Z,11.30
2023-05-12T23:58:52.499Z,11.30
